Montpelier, Maryland
Current Conditions -  °F | °C
As of 3:18 AM on Tuesday 27 Jan 2015 (Local Time) from KFME Reporting Station
Overcast Overcast  
Wind Chill: 20°   Ceiling: 3000
Heat Index: 28°   Visibility: 5mi
Dew Point: 25°   Wind: 9mph
Humidity: 86%   Direction: 40°NE
Pressure: 29.75"   Gusts: NA
Location:  39.0656°N, 76.8397°W
Report Text: KFME 270818Z AUTO 04008KT 5SM SCT013 SCT020 OVC030 M02/M04 A2975 RMK AO1
Loading
Personal Weather Stations






























Interactive Weather Map New forecast layout! Learn more

10-Day Weather Forecast

Advertisements
Track Severe Weather on mobile